Time;durP1;ratioP1;P1;durP2;ratioP2;P2;SDS_P1;SDS_P2;PMS_P1;PMS_P2;Temp;Humidity;BMP_temperature;BMP_pressure;BME280_temperature;BME280_humidity;BME280_pressure;Samples;Min_cycle;Max_cycle;Signal;HPM_P1;HPM_P2
2023/08/23 00:01:35;;;;;;;6.70;4.20;;;;;;;-145.69;nan;51755.25;5114522;27;20556;-83
2023/08/23 00:04:02;;;;;;;7.25;4.25;;;;;;;-145.69;nan;51773.09;5114196;28;20201;-83
2023/08/23 00:06:28;;;;;;;8.55;3.55;;;;;;;-145.69;nan;51751.31;5113305;28;20196;-83
2023/08/23 00:08:56;;;;;;;6.32;3.58;;;;;;;-145.69;nan;51757.25;5114497;28;20542;-83
2023/08/23 00:11:22;;;;;;;4.93;3.72;;;;;;;-145.69;nan;51790.91;5114389;28;20201;-83
2023/08/23 00:13:49;;;;;;;7.32;4.30;;;;;;;-145.69;nan;51775.06;5114137;28;20580;-83
2023/08/23 00:16:15;;;;;;;5.80;4.25;;;;;;;-145.69;nan;51773.09;5114545;28;20413;-83
2023/08/23 00:18:42;;;;;;;8.52;4.75;;;;;;;-145.69;nan;51783.00;5113945;28;20222;-82
2023/08/23 00:21:08;;;;;;;11.18;4.10;;;;;;;-145.69;nan;51786.94;5106143;28;20205;-82
2023/08/23 00:23:35;;;;;;;5.63;3.70;;;;;;;-145.69;nan;51775.06;5113823;28;20668;-82
2023/08/23 00:26:02;;;;;;;4.80;3.58;;;;;;;-145.69;nan;51775.06;5114059;28;20208;-83
2023/08/23 00:28:29;;;;;;;10.32;4.10;;;;;;;-145.69;nan;51783.00;5113944;28;20198;-82
2023/08/23 00:30:56;;;;;;;8.70;3.65;;;;;;;-145.69;nan;51784.97;5113690;28;20194;-83
2023/08/23 00:33:23;;;;;;;7.13;4.20;;;;;;;-145.69;nan;51786.94;5078758;28;20185;-82
2023/08/23 00:35:49;;;;;;;5.38;3.78;;;;;;;-145.69;nan;51767.16;5114043;28;20202;-84
2023/08/23 00:38:15;;;;;;;6.35;4.00;;;;;;;-145.69;nan;51788.94;5114456;28;20204;-82
2023/08/23 00:40:42;;;;;;;5.68;3.88;;;;;;;-145.69;nan;51767.16;5116093;27;20582;-82
2023/08/23 00:43:10;;;;;;;8.88;4.43;;;;;;;-145.69;nan;51769.13;5113886;28;20196;-82
2023/08/23 00:45:38;;;;;;;6.32;4.10;;;;;;;-145.69;nan;51786.94;5114058;28;20204;-83
2023/08/23 00:48:05;;;;;;;7.07;3.85;;;;;;;-145.69;nan;51771.09;5113856;28;20202;-82
2023/08/23 00:50:32;;;;;;;4.78;3.55;;;;;;;-145.69;nan;51775.06;5113730;28;20286;-83
2023/08/23 00:52:58;;;;;;;6.55;3.78;;;;;;;-145.69;nan;51792.88;5113173;28;20201;-82
2023/08/23 00:55:25;;;;;;;9.82;4.30;;;;;;;-145.69;nan;51806.75;5113639;28;20198;-82
2023/08/23 00:57:53;;;;;;;9.75;4.13;;;;;;;-145.69;nan;51775.06;5113546;28;20205;-83
2023/08/23 01:00:21;;;;;;;6.75;4.10;;;;;;;-145.69;nan;51788.94;5112213;28;20827;-82
2023/08/23 01:02:48;;;;;;;5.55;3.78;;;;;;;-145.69;nan;51790.91;5113539;28;20208;-82
2023/08/23 01:05:16;;;;;;;8.30;4.38;;;;;;;-145.69;nan;51763.19;5112882;28;20189;-82
2023/08/23 01:07:50;;;;;;;7.95;4.80;;;;;;;-145.69;nan;51818.63;5113361;28;20197;-82
2023/08/23 01:10:27;;;;;;;9.30;4.60;;;;;;;-145.69;nan;51798.81;5113199;28;20286;-82
2023/08/23 01:13:03;;;;;;;6.30;3.65;;;;;;;-145.69;nan;51755.25;5093152;28;20197;-82
2023/08/23 01:15:33;;;;;;;8.68;4.00;;;;;;;-145.69;nan;51767.16;5074626;28;20198;-82
2023/08/23 01:18:02;;;;;;;7.78;4.18;;;;;;;-145.69;nan;51788.94;5074840;28;20230;-82
2023/08/23 01:20:29;;;;;;;8.25;3.60;;;;;;;-145.69;nan;51820.59;5093639;28;20684;-81
2023/08/23 01:23:05;;;;;;;9.05;4.10;;;;;;;-145.69;nan;51798.81;5112930;28;20201;-83
2023/08/23 01:25:32;;;;;;;6.30;4.10;;;;;;;-145.69;nan;51806.75;5112974;28;20197;-82
2023/08/23 01:27:59;;;;;;;7.72;3.92;;;;;;;-145.69;nan;51810.72;5113091;28;20212;-82
2023/08/23 01:30:26;;;;;;;6.78;4.35;;;;;;;-145.69;nan;51800.81;5112567;28;20189;-82
2023/08/23 01:32:59;;;;;;;9.88;4.20;;;;;;;-145.69;nan;51779.03;5113079;28;20655;-82
2023/08/23 01:35:33;;;;;;;10.55;4.88;;;;;;;-145.69;nan;51800.81;5113178;28;20564;-82
2023/08/23 01:38:02;;;;;;;6.57;4.10;;;;;;;-145.69;nan;51784.97;5106753;28;20533;-82
2023/08/23 01:40:31;;;;;;;8.13;3.97;;;;;;;-145.69;nan;51786.94;5092742;28;20222;-82
2023/08/23 01:42:58;;;;;;;9.45;4.97;;;;;;;-145.69;nan;51810.72;5110862;28;20201;-82
2023/08/23 01:45:24;;;;;;;7.93;4.05;;;;;;;-145.69;nan;51830.50;5113093;28;20667;-82
2023/08/23 01:47:51;;;;;;;7.65;4.00;;;;;;;-145.69;nan;51786.94;5113268;28;20201;-82
2023/08/23 01:50:17;;;;;;;6.03;4.32;;;;;;;-145.69;nan;51790.91;5112653;28;20204;-82
2023/08/23 01:52:44;;;;;;;7.32;3.60;;;;;;;-145.69;nan;51822.59;5113113;28;20205;-82
2023/08/23 01:55:10;;;;;;;9.07;4.47;;;;;;;-145.69;nan;51798.81;5111122;28;20198;-82
2023/08/23 01:57:40;;;;;;;6.57;3.80;;;;;;;-145.69;nan;51798.81;5093979;28;20195;-82
2023/08/23 02:00:07;;;;;;;10.85;4.28;;;;;;;-145.69;nan;51802.78;5101135;28;20226;-82
2023/08/23 02:02:34;;;;;;;6.72;3.70;;;;;;;-145.69;nan;51800.81;5112810;28;20190;-82
2023/08/23 02:05:00;;;;;;;8.63;3.95;;;;;;;-145.69;nan;51771.09;5112701;28;20648;-82
2023/08/23 02:07:27;;;;;;;5.78;3.53;;;;;;;-145.69;nan;51826.56;5112826;28;20234;-81
2023/08/23 02:09:53;;;;;;;6.25;4.00;;;;;;;-145.69;nan;51798.81;5112854;28;20194;-82
2023/08/23 02:12:20;;;;;;;6.70;4.10;;;;;;;-145.69;nan;51806.75;5112341;28;20197;-82
2023/08/23 02:14:48;;;;;;;8.95;4.10;;;;;;;-145.69;nan;51779.03;5112726;28;20319;-81
2023/08/23 02:17:14;;;;;;;4.53;3.20;;;;;;;-145.69;nan;51792.88;5115473;28;20197;-81
2023/08/23 02:19:41;;;;;;;5.40;4.13;;;;;;;-145.69;nan;51784.97;5116746;28;20561;-82
2023/08/23 02:22:07;;;;;;;7.00;3.90;;;;;;;-145.69;nan;51818.63;5116667;28;20193;-81
2023/08/23 02:24:34;;;;;;;5.45;3.90;;;;;;;-145.69;nan;51800.81;5116057;28;20202;-81
2023/08/23 02:27:00;;;;;;;6.40;3.80;;;;;;;-145.69;nan;51798.81;5098409;28;20576;-81
2023/08/23 02:29:27;;;;;;;7.75;3.78;;;;;;;-145.69;nan;51806.75;5116651;28;20208;-82
2023/08/23 02:31:55;;;;;;;7.53;4.03;;;;;;;-145.69;nan;51779.03;5116646;28;20250;-82
2023/08/23 02:34:21;;;;;;;7.40;4.07;;;;;;;-145.69;nan;51858.22;5116365;28;20201;-82
2023/08/23 02:36:48;;;;;;;12.38;3.80;;;;;;;-145.69;nan;51828.53;5116029;28;20193;-82
2023/08/23 02:39:14;;;;;;;8.27;3.90;;;;;;;-145.69;nan;51816.66;5116399;28;20244;-82
2023/08/23 02:41:41;;;;;;;5.32;4.00;;;;;;;-145.69;nan;51808.72;5116004;28;20197;-82
2023/08/23 02:44:08;;;;;;;9.63;3.97;;;;;;;-145.69;nan;51802.78;5118647;27;20228;-82
2023/08/23 02:46:34;;;;;;;3.97;3.20;;;;;;;-145.69;nan;51824.56;5116499;28;20204;-83
2023/08/23 02:49:02;;;;;;;6.72;4.10;;;;;;;-145.69;nan;51830.50;5116004;28;20197;-82
2023/08/23 02:51:29;;;;;;;9.60;3.80;;;;;;;-145.69;nan;51822.59;5115521;28;20192;-83
2023/08/23 02:53:55;;;;;;;4.85;3.55;;;;;;;-145.69;nan;51802.78;5115878;28;20201;-82
2023/08/23 02:56:22;;;;;;;7.15;3.80;;;;;;;-145.69;nan;51828.53;5115238;28;20205;-82
2023/08/23 02:58:48;;;;;;;5.93;3.80;;;;;;;-145.69;nan;51808.72;5116057;28;20687;-81
2023/08/23 03:01:15;;;;;;;7.25;4.07;;;;;;;-145.69;nan;51830.50;5115467;28;20745;-81
2023/08/23 03:03:42;;;;;;;6.15;3.30;;;;;;;-145.69;nan;51830.50;5115207;28;20664;-82
2023/08/23 03:06:10;;;;;;;8.02;3.55;;;;;;;-145.69;nan;51806.75;5097836;28;20206;-82
2023/08/23 03:08:36;;;;;;;5.20;3.50;;;;;;;-145.69;nan;51832.50;5115783;28;20220;-82
2023/08/23 03:11:03;;;;;;;4.95;3.45;;;;;;;-145.69;nan;51820.59;5115788;28;20202;-81
2023/08/23 03:13:30;;;;;;;6.45;3.90;;;;;;;-145.69;nan;51814.66;5115426;28;20637;-82
2023/08/23 03:15:57;;;;;;;13.30;3.65;;;;;;;-145.69;nan;51810.72;5114991;28;20656;-82
2023/08/23 03:18:24;;;;;;;4.78;3.67;;;;;;;-145.69;nan;51816.66;5097710;28;20201;-82
2023/08/23 03:20:51;;;;;;;6.63;3.33;;;;;;;-145.69;nan;51810.72;5115114;28;20685;-82
2023/08/23 03:23:20;;;;;;;5.55;3.30;;;;;;;-145.69;nan;51790.91;5114937;28;20605;-82
2023/08/23 03:25:47;;;;;;;4.85;3.13;;;;;;;-145.69;nan;51794.88;5115555;28;20228;-82
2023/08/23 03:28:13;;;;;;;5.47;3.13;;;;;;;-145.69;nan;51781.00;5114955;28;20201;-82
2023/08/23 03:30:40;;;;;;;6.68;3.88;;;;;;;-145.69;nan;51767.16;5115320;28;20252;-82
2023/08/23 03:33:07;;;;;;;5.60;3.38;;;;;;;-145.69;nan;51826.56;5112838;28;20200;-82
2023/08/23 03:35:33;;;;;;;14.25;4.50;;;;;;;-145.69;nan;51759.22;5115252;28;20201;-82
2023/08/23 03:38:00;;;;;;;12.18;4.35;;;;;;;-145.69;nan;51814.66;5116080;28;20200;-82
2023/08/23 03:40:28;;;;;;;11.48;4.55;;;;;;;-145.69;nan;51810.72;5116929;28;20200;-82
2023/08/23 03:42:55;;;;;;;12.82;4.78;;;;;;;-145.69;nan;51790.91;5115881;28;20193;-82
2023/08/23 03:45:21;;;;;;;9.45;4.78;;;;;;;-145.69;nan;51806.75;5115877;28;20202;-82
2023/08/23 03:47:47;;;;;;;8.82;4.57;;;;;;;-145.69;nan;51790.91;5117511;28;20204;-82
2023/08/23 03:50:14;;;;;;;11.48;3.95;;;;;;;-145.69;nan;51784.97;5115620;28;20236;-81
2023/08/23 03:52:40;;;;;;;6.25;4.30;;;;;;;-145.69;nan;51798.81;5116354;28;20193;-82
2023/08/23 03:55:07;;;;;;;7.03;4.47;;;;;;;-145.69;nan;51828.53;5116372;28;20197;-82
2023/08/23 03:57:35;;;;;;;8.48;4.32;;;;;;;-145.69;nan;51802.78;5111995;28;20201;-81
2023/08/23 04:00:01;;;;;;;8.00;4.18;;;;;;;-145.69;nan;51802.78;5114577;28;20208;-82
2023/08/23 04:02:28;;;;;;;6.45;4.20;;;;;;;-145.69;nan;51826.56;5096609;28;20229;-82
2023/08/23 04:04:54;;;;;;;7.90;4.30;;;;;;;-145.69;nan;51796.84;5114831;28;20201;-82
2023/08/23 04:07:21;;;;;;;6.40;4.55;;;;;;;-145.69;nan;51820.59;5115013;28;20193;-82
2023/08/23 04:09:48;;;;;;;8.52;4.30;;;;;;;-145.69;nan;51818.63;5115154;28;20228;-82
2023/08/23 04:12:14;;;;;;;6.85;4.07;;;;;;;-145.69;nan;51818.63;5096191;28;20242;-81
2023/08/23 04:14:42;;;;;;;9.48;4.38;;;;;;;-145.69;nan;51798.81;5114569;28;20241;-82
2023/08/23 04:17:09;;;;;;;8.32;4.47;;;;;;;-145.69;nan;51790.91;5096542;28;20201;-82
2023/08/23 04:19:35;;;;;;;7.25;4.57;;;;;;;-145.69;nan;51844.38;5115433;28;20189;-82
2023/08/23 04:22:02;;;;;;;9.48;4.40;;;;;;;-145.69;nan;51794.88;5114837;28;20214;-82
2023/08/23 04:24:28;;;;;;;9.63;3.85;;;;;;;-145.69;nan;51816.66;5115794;28;20209;-82
2023/08/23 04:26:55;;;;;;;9.00;4.57;;;;;;;-145.69;nan;51796.84;5115872;28;20198;-82
2023/08/23 04:29:22;;;;;;;7.85;4.30;;;;;;;-145.69;nan;51834.47;5115651;28;20219;-82
2023/08/23 04:31:50;;;;;;;7.78;4.50;;;;;;;-145.69;nan;51786.94;5117268;28;20308;-82
2023/08/23 04:34:16;;;;;;;13.07;4.60;;;;;;;-145.69;nan;51810.72;5114388;28;20193;-82
2023/08/23 04:36:43;;;;;;;8.70;4.63;;;;;;;-145.69;nan;51794.88;5114268;28;20189;-82
2023/08/23 04:39:10;;;;;;;7.47;4.10;;;;;;;-145.69;nan;51828.53;5113551;28;20671;-82
2023/08/23 04:41:36;;;;;;;7.85;3.90;;;;;;;-145.69;nan;51854.28;5114824;28;20204;-82
2023/08/23 04:44:03;;;;;;;7.82;4.47;;;;;;;-145.69;nan;51818.63;5098404;28;20194;-82
2023/08/23 04:46:29;;;;;;;7.53;4.53;;;;;;;-145.69;nan;51796.84;5117034;27;20197;-82
2023/08/23 04:48:57;;;;;;;7.57;4.43;;;;;;;-145.69;nan;51796.84;5136370;27;20232;-82
2023/08/23 04:51:24;;;;;;;10.63;4.50;;;;;;;-145.69;nan;51810.72;5117669;27;20220;-82
2023/08/23 04:53:50;;;;;;;7.53;4.13;;;;;;;-145.69;nan;51796.84;5134618;27;20317;-82
2023/08/23 04:56:17;;;;;;;5.80;4.25;;;;;;;-145.69;nan;51814.66;5122753;27;20200;-82
2023/08/23 04:58:43;;;;;;;12.80;4.40;;;;;;;-145.69;nan;51794.88;5113270;28;20186;-81
2023/08/23 05:01:09;;;;;;;7.30;4.00;;;;;;;-145.69;nan;51796.84;5113575;28;20201;-82
2023/08/23 05:03:36;;;;;;;8.63;4.10;;;;;;;-145.69;nan;51826.56;5113818;28;20197;-83
2023/08/23 05:06:04;;;;;;;6.43;4.13;;;;;;;-145.69;nan;51818.63;5113740;28;20202;-82
2023/08/23 05:08:33;;;;;;;8.57;4.43;;;;;;;-145.69;nan;51790.91;5095436;28;20559;-82
2023/08/23 05:11:00;;;;;;;7.47;3.85;;;;;;;-145.69;nan;51814.66;5113488;28;20644;-82
2023/08/23 05:13:26;;;;;;;5.95;3.72;;;;;;;-145.69;nan;51806.75;5113328;28;20812;-82
2023/08/23 05:15:53;;;;;;;7.47;4.43;;;;;;;-145.69;nan;51800.81;5113564;28;20205;-82
2023/08/23 05:18:20;;;;;;;8.27;4.45;;;;;;;-145.69;nan;51783.00;5113966;28;20197;-82
2023/08/23 05:20:47;;;;;;;7.60;4.03;;;;;;;-145.69;nan;51792.88;5113180;28;20312;-82
2023/08/23 05:23:15;;;;;;;7.75;3.72;;;;;;;-145.69;nan;51794.88;5113592;28;20318;-81
2023/08/23 05:25:41;;;;;;;8.02;3.92;;;;;;;-145.69;nan;51822.59;5113648;28;20193;-82
2023/08/23 05:28:08;;;;;;;8.65;4.55;;;;;;;-145.69;nan;51800.81;5113122;28;20261;-82
2023/08/23 05:30:38;;;;;;;6.00;4.35;;;;;;;-145.69;nan;51773.09;5113128;28;20236;-82
2023/08/23 05:33:06;;;;;;;9.50;4.18;;;;;;;-145.69;nan;51812.69;5113289;28;20197;-82
2023/08/23 05:35:33;;;;;;;6.00;4.05;;;;;;;-145.69;nan;51783.00;5103794;28;20195;-82
2023/08/23 05:37:59;;;;;;;8.40;4.70;;;;;;;-145.69;nan;51786.94;5128619;27;20197;-82
2023/08/23 05:40:27;;;;;;;8.07;3.90;;;;;;;-145.69;nan;51786.94;5094578;28;20193;-81
2023/08/23 05:42:54;;;;;;;8.50;4.13;;;;;;;-145.69;nan;51788.94;5113210;28;20208;-81
2023/08/23 05:45:20;;;;;;;5.95;3.97;;;;;;;-145.69;nan;51820.59;5112523;28;20197;-82
2023/08/23 05:47:47;;;;;;;6.78;4.18;;;;;;;-145.69;nan;51786.94;5113120;28;20648;-83
2023/08/23 05:50:13;;;;;;;5.72;3.72;;;;;;;-145.69;nan;51784.97;5114310;28;20233;-82
2023/08/23 05:52:40;;;;;;;7.53;3.83;;;;;;;-145.69;nan;51798.81;5117322;28;20201;-82
2023/08/23 05:55:08;;;;;;;5.00;3.60;;;;;;;-145.69;nan;51781.00;5116484;28;20201;-82
2023/08/23 05:57:36;;;;;;;6.57;3.95;;;;;;;-145.69;nan;51773.09;5116998;28;20246;-81
2023/08/23 06:00:05;;;;;;;7.00;3.35;;;;;;;-145.69;nan;51783.00;5098638;28;20190;-82
2023/08/23 06:02:31;;;;;;;5.90;3.90;;;;;;;-145.69;nan;51779.03;5113012;28;20259;-82
2023/08/23 06:04:59;;;;;;;7.53;3.97;;;;;;;-145.69;nan;51775.06;5097255;28;20198;-82
2023/08/23 06:07:26;;;;;;;4.72;3.65;;;;;;;-145.69;nan;51759.22;5117048;28;20201;-82
2023/08/23 06:09:52;;;;;;;5.97;3.80;;;;;;;-145.69;nan;51759.22;5117463;28;20202;-82
2023/08/23 06:12:19;;;;;;;6.43;3.80;;;;;;;-145.69;nan;51751.31;5116525;28;20229;-82
2023/08/23 06:14:47;;;;;;;10.32;3.70;;;;;;;-145.69;nan;51765.16;5116641;28;20667;-82
2023/08/23 06:17:13;;;;;;;4.78;3.70;;;;;;;-145.69;nan;51745.38;5117062;28;20190;-82
2023/08/23 06:19:40;;;;;;;8.50;3.88;;;;;;;-145.69;nan;51753.28;5116807;28;20648;-83
2023/08/23 06:22:06;;;;;;;5.63;3.53;;;;;;;-145.69;nan;51757.25;5116745;28;20211;-82
2023/08/23 06:24:33;;;;;;;3.40;2.97;;;;;;;-145.69;nan;51743.38;5116608;28;20193;-83
2023/08/23 06:26:59;;;;;;;9.05;3.47;;;;;;;-145.69;nan;51729.53;5116742;28;20594;-82
2023/08/23 06:29:26;;;;;;;8.00;3.42;;;;;;;-145.69;nan;51765.16;5115847;28;20193;-82
2023/08/23 06:31:54;;;;;;;7.78;3.60;;;;;;;-145.69;nan;51735.47;5081584;28;20225;-82
2023/08/23 06:34:20;;;;;;;6.22;3.00;;;;;;;-145.69;nan;51723.59;5116368;28;20204;-82
2023/08/23 06:36:47;;;;;;;4.93;3.53;;;;;;;-145.69;nan;51725.56;5116614;28;20197;-82
2023/08/23 06:39:14;;;;;;;4.57;3.30;;;;;;;-145.69;nan;51735.47;5097960;27;20190;-82
2023/08/23 06:41:40;;;;;;;4.93;3.13;;;;;;;-145.69;nan;51711.72;5128600;27;20224;-82
2023/08/23 06:44:07;;;;;;;4.32;3.25;;;;;;;-145.69;nan;51687.94;5116355;28;20198;-82
2023/08/23 06:46:33;;;;;;;5.53;3.50;;;;;;;-145.69;nan;51719.63;5116496;28;20201;-82
2023/08/23 06:49:01;;;;;;;5.57;3.70;;;;;;;-145.69;nan;51711.72;5116279;28;20201;-83
2023/08/23 06:51:28;;;;;;;5.35;3.25;;;;;;;-145.69;nan;51703.78;5115769;28;20695;-83
2023/08/23 06:53:55;;;;;;;7.68;3.03;;;;;;;-145.69;nan;51697.84;5115556;28;20194;-83
2023/08/23 06:56:21;;;;;;;4.72;3.03;;;;;;;-145.69;nan;51709.72;5115638;28;20193;-82
2023/08/23 06:58:48;;;;;;;4.45;3.28;;;;;;;-145.69;nan;51717.66;5115724;28;20559;-83
2023/08/23 07:01:16;;;;;;;4.45;3.05;;;;;;;-145.69;nan;51761.22;5115249;28;20193;-82
2023/08/23 07:03:42;;;;;;;4.90;2.67;;;;;;;-145.69;nan;51751.31;5115351;28;20201;-82
2023/08/23 07:06:12;;;;;;;5.13;3.33;;;;;;;-145.69;nan;51725.56;5115613;28;20555;-82
2023/08/23 07:08:38;;;;;;;6.25;3.20;;;;;;;-145.69;nan;51709.72;5115358;28;20748;-82
2023/08/23 07:11:05;;;;;;;5.15;2.83;;;;;;;-145.69;nan;51719.63;5115565;28;20224;-82
2023/08/23 07:13:31;;;;;;;6.22;3.10;;;;;;;-145.69;nan;51697.84;5115693;28;20225;-82
2023/08/23 07:15:58;;;;;;;5.43;3.40;;;;;;;-145.69;nan;51723.59;5115602;28;20204;-82
2023/08/23 07:18:24;;;;;;;4.85;3.70;;;;;;;-145.69;nan;51739.44;5115591;28;20198;-82
2023/08/23 07:20:51;;;;;;;7.80;3.60;;;;;;;-145.69;nan;51691.91;5115457;28;20288;-82
2023/08/23 07:23:19;;;;;;;8.18;3.50;;;;;;;-145.69;nan;51711.72;5115333;28;20198;-83
2023/08/23 07:25:46;;;;;;;6.90;3.33;;;;;;;-145.69;nan;51725.56;5115537;28;20205;-82
2023/08/23 07:28:13;;;;;;;5.28;3.28;;;;;;;-145.69;nan;51717.66;5115608;28;20718;-83
2023/08/23 07:30:44;;;;;;;4.35;3.33;;;;;;;-145.69;nan;51725.56;5115151;28;20193;-82
2023/08/23 07:33:11;;;;;;;5.80;2.88;;;;;;;-145.69;nan;51711.72;5102866;28;20200;-82
2023/08/23 07:35:37;;;;;;;5.07;3.28;;;;;;;-145.69;nan;51693.88;5108227;28;20204;-82
2023/08/23 07:38:04;;;;;;;5.90;3.45;;;;;;;-145.69;nan;51680.03;5115195;28;20208;-83
2023/08/23 07:40:32;;;;;;;7.20;3.25;;;;;;;-145.69;nan;51658.25;5115267;28;20205;-83
2023/08/23 07:42:58;;;;;;;4.88;3.42;;;;;;;-145.69;nan;51691.91;5115190;28;20208;-83
2023/08/23 07:45:25;;;;;;;4.25;2.80;;;;;;;-145.69;nan;51670.13;5114679;28;20842;-83
2023/08/23 07:47:51;;;;;;;5.05;2.90;;;;;;;-145.69;nan;51682.00;5115221;28;20213;-83
2023/08/23 07:50:18;;;;;;;6.10;3.08;;;;;;;-145.69;nan;51664.19;5114458;28;20556;-83
2023/08/23 07:52:45;;;;;;;4.95;3.22;;;;;;;-145.69;nan;51648.34;5113311;28;20312;-82
2023/08/23 07:55:12;;;;;;;4.30;2.83;;;;;;;-145.69;nan;51680.03;5113604;28;20201;-83
2023/08/23 07:57:39;;;;;;;4.72;2.95;;;;;;;-145.69;nan;51652.31;5112916;28;20193;-83
2023/08/23 08:00:09;;;;;;;5.90;3.28;;;;;;;-145.69;nan;51644.38;5113059;28;20559;-83
2023/08/23 08:02:35;;;;;;;4.47;2.60;;;;;;;-145.69;nan;51660.22;5110571;28;20193;-83
2023/08/23 08:05:02;;;;;;;5.00;3.10;;;;;;;-145.69;nan;51640.44;5113692;28;20223;-82
2023/08/23 08:07:30;;;;;;;4.47;3.13;;;;;;;-145.69;nan;51662.22;5114763;28;20557;-83
2023/08/23 08:09:57;;;;;;;4.95;2.95;;;;;;;-145.69;nan;51648.34;5114564;28;20230;-82
2023/08/23 08:12:23;;;;;;;5.20;3.38;;;;;;;-145.69;nan;51626.56;5114427;28;20668;-82
2023/08/23 08:14:51;;;;;;;8.27;3.10;;;;;;;-145.69;nan;51630.53;5114230;28;20885;-83
2023/08/23 08:17:18;;;;;;;4.03;3.08;;;;;;;-145.69;nan;51612.72;5114544;28;20193;-83
2023/08/23 08:19:44;;;;;;;4.93;3.17;;;;;;;-145.69;nan;51624.59;5114454;28;20200;-81
2023/08/23 08:22:11;;;;;;;3.63;2.83;;;;;;;-145.69;nan;51620.63;5114143;28;20204;-82
2023/08/23 08:24:37;;;;;;;7.20;3.03;;;;;;;-145.69;nan;51624.59;5113897;28;20232;-82
2023/08/23 08:27:04;;;;;;;6.03;3.10;;;;;;;-145.69;nan;51638.44;5114099;28;20219;-82
2023/08/23 08:29:31;;;;;;;4.43;3.00;;;;;;;-145.69;nan;51632.50;5114281;28;20790;-83
2023/08/23 08:31:59;;;;;;;4.35;2.65;;;;;;;-145.69;nan;51584.97;5114229;28;20229;-82
2023/08/23 08:34:25;;;;;;;4.82;2.72;;;;;;;-145.69;nan;51632.50;5114114;28;20196;-82
2023/08/23 08:36:52;;;;;;;5.68;3.05;;;;;;;-145.69;nan;51636.47;5113914;28;20194;-82
2023/08/23 08:39:18;;;;;;;4.45;2.78;;;;;;;-145.69;nan;51602.81;5113965;28;20193;-83
2023/08/23 08:41:45;;;;;;;5.20;3.25;;;;;;;-145.69;nan;51626.56;5116546;27;20201;-83
2023/08/23 08:44:12;;;;;;;5.93;2.92;;;;;;;-145.69;nan;51624.59;5114284;28;20193;-81
2023/08/23 08:46:39;;;;;;;5.65;3.00;;;;;;;-145.69;nan;51628.53;5113832;28;20538;-82
2023/08/23 08:49:07;;;;;;;5.97;3.00;;;;;;;-145.69;nan;51628.53;5114046;28;20208;-82
2023/08/23 08:51:36;;;;;;;6.55;3.50;;;;;;;-145.69;nan;51628.53;5113898;28;20405;-81
2023/08/23 08:54:05;;;;;;;8.00;3.25;;;;;;;-145.69;nan;51652.31;5113475;28;20558;-82
2023/08/23 08:56:32;;;;;;;7.90;3.47;;;;;;;-145.69;nan;51644.38;5113441;28;20193;-83
2023/08/23 08:58:59;;;;;;;6.80;3.13;;;;;;;-145.69;nan;51624.59;5113586;28;20330;-84
2023/08/23 09:01:31;;;;;;;6.22;3.08;;;;;;;-145.69;nan;51630.53;5113633;28;20213;-82
2023/08/23 09:03:58;;;;;;;5.97;3.15;;;;;;;-145.69;nan;51640.44;5113726;28;20206;-79
2023/08/23 09:06:27;;;;;;;7.88;3.40;;;;;;;-145.69;nan;51642.41;5113590;28;20215;-83
2023/08/23 09:08:54;;;;;;;5.30;2.90;;;;;;;-145.69;nan;51610.72;5113001;28;20193;-83
2023/08/23 09:11:21;;;;;;;4.50;3.05;;;;;;;-145.69;nan;51614.69;5113639;28;20228;-83
2023/08/23 09:13:48;;;;;;;4.20;2.78;;;;;;;-145.69;nan;51630.53;5113338;28;20290;-83
2023/08/23 09:16:15;;;;;;;6.95;3.10;;;;;;;-145.69;nan;51618.66;5095532;28;20201;-83
2023/08/23 09:18:44;;;;;;;5.90;3.15;;;;;;;-145.69;nan;51628.53;5113402;28;20652;-82
2023/08/23 09:21:12;;;;;;;5.18;2.58;;;;;;;-145.69;nan;51652.31;5113050;28;20189;-81
2023/08/23 09:23:40;;;;;;;7.38;3.22;;;;;;;-145.69;nan;51592.91;5111557;28;20193;-84
2023/08/23 09:26:07;;;;;;;4.85;2.80;;;;;;;-145.69;nan;51638.44;5092303;28;20660;-82
2023/08/23 09:28:34;;;;;;;9.38;3.05;;;;;;;-145.69;nan;51624.59;5092932;28;20214;-81
2023/08/23 09:31:00;;;;;;;4.47;2.60;;;;;;;-145.69;nan;51644.38;5097304;28;20189;-83
2023/08/23 09:33:27;;;;;;;6.70;3.00;;;;;;;-145.69;nan;51652.31;5111915;28;20592;-82
2023/08/23 09:35:56;;;;;;;6.18;3.42;;;;;;;-145.69;nan;51628.53;5113235;28;20292;-83
2023/08/23 09:38:22;;;;;;;5.45;3.20;;;;;;;-145.69;nan;51636.47;5113231;28;20209;-82
2023/08/23 09:40:50;;;;;;;5.40;3.00;;;;;;;-145.69;nan;51626.56;5113341;28;20548;-83
2023/08/23 09:43:17;;;;;;;5.20;2.80;;;;;;;-145.69;nan;51608.75;5113327;28;20235;-82
2023/08/23 09:45:45;;;;;;;6.05;2.92;;;;;;;-145.69;nan;51610.72;5113121;28;20201;-84
2023/08/23 09:48:13;;;;;;;4.65;3.15;;;;;;;-145.69;nan;51632.50;5113353;28;20209;-83
2023/08/23 09:50:39;;;;;;;3.80;2.95;;;;;;;-145.69;nan;51618.66;5112897;28;20231;-82
2023/08/23 09:53:07;;;;;;;4.57;3.05;;;;;;;-145.69;nan;51644.38;5111721;28;20683;-84
2023/08/23 09:55:34;;;;;;;5.68;3.30;;;;;;;-145.69;nan;51652.31;5112598;28;20189;-82
2023/08/23 09:58:03;;;;;;;8.43;3.40;;;;;;;-145.69;nan;51642.41;5112340;28;20552;-83
2023/08/23 10:00:30;;;;;;;6.60;3.58;;;;;;;-145.69;nan;51608.75;5109703;28;20541;-83
2023/08/23 10:02:57;;;;;;;5.03;3.20;;;;;;;-145.69;nan;51624.59;5112581;28;20201;-84
2023/08/23 10:05:25;;;;;;;5.78;3.50;;;;;;;-145.69;nan;51618.66;5110484;28;20740;-84
2023/08/23 10:07:54;;;;;;;7.22;3.35;;;;;;;-145.69;nan;51620.63;5113078;28;20202;-82
2023/08/23 10:10:20;;;;;;;6.68;3.58;;;;;;;-145.69;nan;51618.66;5113056;28;20610;-84
2023/08/23 10:12:50;;;;;;;8.00;3.55;;;;;;;-145.69;nan;51612.72;5112751;28;20587;-84
2023/08/23 10:15:27;;;;;;;5.30;3.63;;;;;;;-145.69;nan;51606.75;5112244;28;20268;-84
2023/08/23 10:17:55;;;;;;;9.75;3.58;;;;;;;-145.69;nan;51606.75;5112595;28;20197;-84
2023/08/23 10:20:23;;;;;;;8.00;3.10;;;;;;;-145.69;nan;51596.88;5112712;28;20584;-83
2023/08/23 10:22:54;;;;;;;7.00;3.53;;;;;;;-145.69;nan;51608.75;5112439;28;20194;-84
2023/08/23 10:25:22;;;;;;;5.47;3.50;;;;;;;-145.69;nan;51622.59;5112371;28;20197;-84
2023/08/23 10:27:52;;;;;;;10.13;3.47;;;;;;;-145.69;nan;51616.66;5112394;28;20202;-83
2023/08/23 10:30:24;;;;;;;4.53;3.17;;;;;;;-145.69;nan;51604.78;5112132;28;20555;-84
2023/08/23 10:32:51;;;;;;;6.22;3.08;;;;;;;-145.69;nan;51608.75;5112689;28;20225;-84
2023/08/23 10:35:28;;;;;;;7.47;3.25;;;;;;;-145.69;nan;51608.75;5112843;28;20194;-84
2023/08/23 10:37:55;;;;;;;6.13;3.50;;;;;;;-145.69;nan;51612.72;5098680;28;20228;-84
2023/08/23 10:40:22;;;;;;;6.88;3.47;;;;;;;-145.69;nan;51598.84;5116320;28;20197;-82
2023/08/23 10:42:50;;;;;;;6.07;3.80;;;;;;;-145.69;nan;51588.94;5115939;28;20205;-85
2023/08/23 10:45:17;;;;;;;6.85;3.88;;;;;;;-145.69;nan;51596.88;5116366;28;20208;-84
2023/08/23 10:47:49;;;;;;;11.90;4.10;;;;;;;-145.69;nan;51590.94;5118086;27;20284;-85
2023/08/23 10:50:19;;;;;;;7.28;3.67;;;;;;;-145.69;nan;51598.84;5116151;28;20225;-84
2023/08/23 10:52:48;;;;;;;12.10;4.40;;;;;;;-145.69;nan;51604.78;5095811;28;20278;-85
2023/08/23 10:55:15;;;;;;;6.93;3.55;;;;;;;-145.69;nan;51606.75;5095578;28;20202;-83
2023/08/23 10:57:44;;;;;;;6.60;3.80;;;;;;;-145.69;nan;51612.72;5095752;28;20295;-84
2023/08/23 11:00:12;;;;;;;6.78;3.92;;;;;;;-145.69;nan;51618.66;5101829;28;20631;-83
2023/08/23 11:02:40;;;;;;;5.78;3.38;;;;;;;-145.69;nan;51626.56;5115606;28;20205;-84
2023/08/23 11:05:09;;;;;;;6.90;4.10;;;;;;;-145.69;nan;51612.72;5116676;28;20201;-85
2023/08/23 11:07:36;;;;;;;5.20;3.40;;;;;;;-145.69;nan;51598.84;5116302;28;20707;-84
2023/08/23 11:10:03;;;;;;;5.72;3.97;;;;;;;-145.69;nan;51620.63;5116436;28;20555;-83
2023/08/23 11:12:32;;;;;;;7.85;4.00;;;;;;;-145.69;nan;51630.53;5116106;28;20231;-84
2023/08/23 11:14:59;;;;;;;9.77;3.70;;;;;;;-145.69;nan;51628.53;5116320;28;20264;-83
2023/08/23 11:17:26;;;;;;;6.13;3.83;;;;;;;-145.69;nan;51624.59;5115985;28;20701;-84
2023/08/23 11:19:52;;;;;;;11.15;4.03;;;;;;;-145.69;nan;51604.78;5115400;28;20197;-84
2023/08/23 11:22:21;;;;;;;6.18;3.80;;;;;;;-145.69;nan;51616.66;5116315;28;20258;-85
2023/08/23 11:24:47;;;;;;;7.90;4.05;;;;;;;-145.69;nan;51618.66;5118316;28;20201;-83
2023/08/23 11:27:14;;;;;;;7.43;4.00;;;;;;;-145.69;nan;51636.47;5115626;28;20246;-85
2023/08/23 11:29:43;;;;;;;5.25;3.85;;;;;;;-145.69;nan;51626.56;5115195;28;20209;-85
2023/08/23 11:32:10;;;;;;;5.63;3.75;;;;;;;-145.69;nan;51614.69;5115634;28;20228;-85